Nassawadox, Virginia
Current Conditions -  °F | °C
As of 5:55 AM on Wednesday 22 Oct 2014 (Local Time) from KMFV Reporting Station
Moderate Rain Moderate Rain  
Wind Chill: 54°   Ceiling: 9000
Heat Index: 54°   Visibility: 3mi
Dew Point: 52°   Wind: 13mph
Humidity: 94%   Direction: 30°NNE
Pressure: 29.76"   Gusts: NA
Location:  37.47°N, 75.86°W
Report Text: KMFV 220955Z AUTO 03011KT 3SM RA SCT060 BKN090 OVC110 12/11 A2976 RMK AO2 LTG DSNT N THRU SE
Loading
Personal Weather Stations






























Interactive Weather Map
Tropical Storm Tracking
New forecast layout! Learn more

10-Day Weather Forecast

Advertisements
Track Severe Weather on mobile